Time;durP1;ratioP1;P1;durP2;ratioP2;P2;SDS_P1;SDS_P2;PMS_P1;PMS_P2;Temp;Humidity;BMP_temperature;BMP_pressure;BME280_temperature;BME280_humidity;BME280_pressure;Samples;Min_cycle;Max_cycle;Signal;HPM_P1;HPM_P2
2024/01/25 00:00:46;;;;;;;9.23;2.90;;;9.20;54.40;;;;;;5046593;28;20260;-61
2024/01/25 00:03:13;;;;;;;11.30;3.03;;;9.20;54.30;;;;;;5051130;28;20295;-60
2024/01/25 00:05:40;;;;;;;7.90;3.23;;;9.20;54.50;;;;;;5053386;28;20297;-61
2024/01/25 00:08:07;;;;;;;8.10;3.33;;;9.20;54.70;;;;;;5053340;28;20262;-61
2024/01/25 00:10:33;;;;;;;7.77;2.80;;;9.20;54.70;;;;;;5053871;28;20649;-61
2024/01/25 00:13:01;;;;;;;7.77;2.40;;;9.30;54.90;;;;;;5052760;28;20238;-61
2024/01/25 00:15:27;;;;;;;5.10;2.47;;;9.20;55.20;;;;;;5053402;28;20206;-60
2024/01/25 00:17:54;;;;;;;6.33;2.90;;;9.20;55.50;;;;;;5053579;28;20211;-59
2024/01/25 00:20:20;;;;;;;7.83;3.03;;;9.20;55.90;;;;;;5046966;28;20234;-59
2024/01/25 00:22:47;;;;;;;10.43;3.23;;;9.10;56.20;;;;;;5052398;28;20257;-59
2024/01/25 00:25:13;;;;;;;6.63;2.73;;;9.10;56.30;;;;;;5053604;28;20308;-56
2024/01/25 00:27:40;;;;;;;6.27;2.87;;;9.10;56.60;;;;;;5054212;28;20252;-59
2024/01/25 00:30:06;;;;;;;8.07;3.10;;;9.10;57.30;;;;;;5053973;28;20683;-60
2024/01/25 00:32:33;;;;;;;7.67;2.70;;;9.00;57.60;;;;;;5052998;28;20261;-58
2024/01/25 00:34:59;;;;;;;4.93;2.43;;;9.10;57.90;;;;;;5052891;28;20245;-59
2024/01/25 00:37:26;;;;;;;6.50;2.80;;;9.20;57.30;;;;;;5047393;28;20202;-60
2024/01/25 00:39:53;;;;;;;5.53;2.87;;;9.10;58.10;;;;;;5044049;28;20256;-61
2024/01/25 00:42:19;;;;;;;5.67;2.77;;;9.10;58.00;;;;;;5052911;28;20223;-61
2024/01/25 00:44:46;;;;;;;4.40;2.30;;;9.10;58.10;;;;;;5052891;28;20232;-60
2024/01/25 00:47:12;;;;;;;7.23;2.87;;;9.20;58.10;;;;;;5051602;28;20263;-61
2024/01/25 00:49:38;;;;;;;5.43;2.40;;;9.20;57.50;;;;;;5044549;28;20352;-60
2024/01/25 00:52:05;;;;;;;4.90;2.37;;;9.20;58.50;;;;;;5052122;28;20214;-60
2024/01/25 00:54:31;;;;;;;4.70;3.00;;;9.20;57.70;;;;;;5045161;28;20207;-61
2024/01/25 00:56:58;;;;;;;5.80;2.37;;;9.10;57.90;;;;;;5041398;28;20230;-61
2024/01/25 00:59:24;;;;;;;6.17;2.60;;;9.20;57.40;;;;;;5048737;28;20257;-61
2024/01/25 01:01:51;;;;;;;5.33;3.03;;;9.20;57.70;;;;;;5052130;28;20227;-60
2024/01/25 01:04:18;;;;;;;9.67;3.10;;;9.20;57.00;;;;;;5052929;28;20229;-59
2024/01/25 01:06:44;;;;;;;5.80;2.90;;;9.20;56.90;;;;;;5052088;28;20226;-61
2024/01/25 01:09:11;;;;;;;10.07;2.90;;;9.20;56.80;;;;;;5052314;28;20391;-60
2024/01/25 01:11:37;;;;;;;9.80;4.23;;;9.10;56.90;;;;;;5051579;28;20229;-60
2024/01/25 01:14:03;;;;;;;6.80;2.60;;;9.20;56.50;;;;;;5045000;28;20761;-61
2024/01/25 01:16:33;;;;;;;6.17;2.83;;;9.20;56.30;;;;;;5045775;28;20202;-60
2024/01/25 01:19:05;;;;;;;7.60;3.10;;;9.20;56.30;;;;;;5044254;28;20279;-60
2024/01/25 01:21:31;;;;;;;7.63;2.70;;;9.30;56.30;;;;;;5051798;28;20229;-60
2024/01/25 01:23:58;;;;;;;11.93;3.10;;;9.20;56.30;;;;;;5052415;28;20237;-60
2024/01/25 01:26:24;;;;;;;7.20;3.00;;;9.20;56.30;;;;;;5051905;28;20700;-60
2024/01/25 01:28:51;;;;;;;9.50;3.93;;;9.20;56.20;;;;;;5051628;28;20240;-60
2024/01/25 01:31:16;;;;;;;7.47;3.17;;;9.20;56.10;;;;;;5051962;28;20327;-59
2024/01/25 01:33:42;;;;;;;7.33;2.90;;;9.30;55.90;;;;;;5052256;28;20238;-60
2024/01/25 01:36:09;;;;;;;11.57;3.20;;;9.30;55.60;;;;;;5042493;28;20712;-61
2024/01/25 01:38:36;;;;;;;9.27;3.27;;;9.20;55.70;;;;;;5043988;28;20207;-61
2024/01/25 01:41:02;;;;;;;7.43;2.73;;;9.20;56.20;;;;;;5045089;28;20276;-60
2024/01/25 01:43:29;;;;;;;7.23;3.20;;;9.20;56.10;;;;;;5044331;28;20735;-59
2024/01/25 01:45:55;;;;;;;5.87;2.60;;;9.20;55.80;;;;;;5045683;28;20278;-61
2024/01/25 01:48:22;;;;;;;8.93;3.13;;;9.30;55.90;;;;;;5052374;28;20238;-61
2024/01/25 01:50:48;;;;;;;4.97;2.80;;;9.20;56.10;;;;;;5051961;28;20243;-61
2024/01/25 01:53:15;;;;;;;8.97;3.30;;;9.20;56.30;;;;;;5052247;28;20206;-60
2024/01/25 01:55:42;;;;;;;10.40;2.73;;;9.20;56.30;;;;;;5051539;28;20245;-61
2024/01/25 01:58:08;;;;;;;9.63;3.03;;;9.20;56.30;;;;;;5051762;28;20293;-61
2024/01/25 02:00:35;;;;;;;8.60;2.80;;;9.20;56.40;;;;;;5051738;28;20206;-60
2024/01/25 02:03:01;;;;;;;9.10;2.60;;;9.20;56.30;;;;;;5047889;28;20312;-60
2024/01/25 02:05:28;;;;;;;9.10;3.27;;;9.10;56.60;;;;;;5050724;28;20229;-60
2024/01/25 02:07:54;;;;;;;6.80;3.13;;;9.10;56.70;;;;;;5048024;28;20202;-61
2024/01/25 02:10:21;;;;;;;8.00;3.17;;;9.20;56.70;;;;;;5052154;28;20245;-61
2024/01/25 02:12:47;;;;;;;8.07;3.10;;;9.10;56.90;;;;;;5044304;28;20327;-61
2024/01/25 02:15:14;;;;;;;7.77;2.90;;;9.10;57.00;;;;;;5052713;28;20242;-60
2024/01/25 02:17:40;;;;;;;6.00;2.60;;;9.10;57.10;;;;;;5051941;28;20579;-60
2024/01/25 02:20:07;;;;;;;8.10;2.90;;;9.10;57.40;;;;;;5047922;28;20255;-60
2024/01/25 02:22:33;;;;;;;6.33;2.90;;;9.10;57.20;;;;;;5070365;23;20291;-62
2024/01/25 02:25:00;;;;;;;5.07;2.53;;;9.10;57.60;;;;;;5059917;28;20214;-60
2024/01/25 02:27:26;;;;;;;8.67;3.10;;;9.00;57.60;;;;;;5059143;28;20252;-60
2024/01/25 02:29:53;;;;;;;8.50;3.60;;;9.10;57.60;;;;;;5060193;28;20241;-60
2024/01/25 02:32:19;;;;;;;5.77;2.87;;;9.10;58.20;;;;;;5059133;28;20268;-60
2024/01/25 02:34:46;;;;;;;7.57;3.20;;;9.10;57.90;;;;;;5055363;28;20234;-60
2024/01/25 02:37:14;;;;;;;6.17;2.90;;;9.00;58.00;;;;;;5053722;28;20291;-60
2024/01/25 02:39:40;;;;;;;7.70;3.20;;;9.00;57.70;;;;;;5058891;28;20205;-60
2024/01/25 02:42:07;;;;;;;7.83;2.83;;;9.10;57.60;;;;;;5055665;28;20282;-60
2024/01/25 02:44:33;;;;;;;9.33;3.10;;;9.10;57.90;;;;;;5059168;28;20234;-60
2024/01/25 02:47:01;;;;;;;7.17;2.73;;;9.10;57.80;;;;;;5059641;28;20255;-60
2024/01/25 02:49:27;;;;;;;7.37;3.00;;;9.10;57.60;;;;;;5059347;28;20242;-60
2024/01/25 02:51:54;;;;;;;6.63;2.80;;;9.10;58.10;;;;;;5053837;28;20225;-59
2024/01/25 02:54:20;;;;;;;4.53;2.70;;;9.10;58.10;;;;;;5054081;28;20210;-60
2024/01/25 02:56:47;;;;;;;6.50;2.83;;;9.00;58.00;;;;;;5052713;28;20226;-60
2024/01/25 02:59:13;;;;;;;9.07;4.00;;;9.00;58.00;;;;;;5063007;28;20245;-59
2024/01/25 03:01:40;;;;;;;6.43;2.90;;;9.10;58.10;;;;;;5045169;28;20750;-60
2024/01/25 03:04:06;;;;;;;10.10;3.07;;;9.10;58.10;;;;;;5048365;28;20202;-60
2024/01/25 03:06:33;;;;;;;8.53;2.80;;;9.10;58.10;;;;;;5058687;28;20253;-60
2024/01/25 03:08:59;;;;;;;6.33;2.70;;;9.10;58.10;;;;;;5062527;28;20230;-58
2024/01/25 03:11:26;;;;;;;7.20;3.03;;;9.10;58.10;;;;;;5066957;28;20797;-60
2024/01/25 03:13:52;;;;;;;9.60;3.33;;;9.10;58.10;;;;;;5063585;28;20220;-60
2024/01/25 03:16:19;;;;;;;5.10;2.27;;;9.10;58.10;;;;;;5063322;28;20628;-60
2024/01/25 03:18:45;;;;;;;10.37;2.90;;;9.10;58.10;;;;;;5050158;28;20198;-60
2024/01/25 03:21:12;;;;;;;7.80;3.13;;;9.10;58.10;;;;;;5049257;28;20233;-59
2024/01/25 03:23:38;;;;;;;8.17;3.23;;;9.10;58.10;;;;;;5067591;28;20285;-59
2024/01/25 03:26:05;;;;;;;6.93;2.60;;;9.10;58.10;;;;;;5066417;28;20232;-60
2024/01/25 03:28:31;;;;;;;5.93;2.90;;;9.10;58.10;;;;;;5066440;28;20629;-60
2024/01/25 03:30:58;;;;;;;6.20;2.67;;;9.10;58.10;;;;;;5063228;28;20272;-59
2024/01/25 03:33:25;;;;;;;9.03;3.30;;;9.10;58.30;;;;;;5063241;28;20237;-60
2024/01/25 03:35:51;;;;;;;6.93;2.73;;;9.10;58.50;;;;;;5062696;28;20220;-58
2024/01/25 03:38:18;;;;;;;6.77;2.60;;;9.10;58.30;;;;;;5062899;28;20676;-60
2024/01/25 03:40:44;;;;;;;6.13;2.77;;;9.10;58.60;;;;;;5055711;28;20240;-58
2024/01/25 03:43:11;;;;;;;6.53;2.47;;;9.10;58.90;;;;;;5060720;28;20238;-60
2024/01/25 03:45:37;;;;;;;7.83;3.40;;;9.10;59.00;;;;;;5064235;28;21008;-60
2024/01/25 03:48:04;;;;;;;12.30;3.07;;;9.00;59.50;;;;;;5061828;28;20198;-59
2024/01/25 03:50:30;;;;;;;5.20;2.63;;;9.00;59.60;;;;;;5063062;28;20213;-57
2024/01/25 03:52:57;;;;;;;6.67;2.60;;;9.00;59.50;;;;;;5065075;28;20265;-59
2024/01/25 03:55:23;;;;;;;5.80;2.77;;;9.10;59.30;;;;;;5065658;28;20241;-59
2024/01/25 03:57:50;;;;;;;5.60;2.57;;;9.00;59.60;;;;;;5050351;28;20818;-60
2024/01/25 04:00:16;;;;;;;8.47;2.93;;;9.00;59.60;;;;;;5065335;28;20233;-57
2024/01/25 04:02:43;;;;;;;7.23;2.60;;;9.00;59.30;;;;;;5064713;28;20253;-60
2024/01/25 04:05:09;;;;;;;8.07;2.60;;;9.00;59.20;;;;;;5062188;28;20211;-60
2024/01/25 04:07:36;;;;;;;5.57;2.60;;;9.10;59.10;;;;;;5063087;28;20712;-60
2024/01/25 04:10:02;;;;;;;5.73;2.70;;;9.00;59.50;;;;;;5060811;28;20210;-60
2024/01/25 04:12:29;;;;;;;3.30;2.53;;;9.00;59.50;;;;;;5062351;28;20233;-59
2024/01/25 04:14:55;;;;;;;3.63;2.23;;;9.00;59.20;;;;;;5047710;28;20294;-60
2024/01/25 04:17:22;;;;;;;7.63;2.63;;;9.00;59.30;;;;;;5058929;28;20232;-60
2024/01/25 04:19:48;;;;;;;8.57;2.70;;;8.90;59.60;;;;;;5051217;28;20296;-60
2024/01/25 04:22:15;;;;;;;6.80;2.67;;;8.90;59.60;;;;;;5064036;28;20256;-60
2024/01/25 04:24:43;;;;;;;7.77;2.30;;;9.00;59.40;;;;;;5063756;28;20664;-60
2024/01/25 04:27:09;;;;;;;5.67;2.50;;;9.00;59.20;;;;;;5060679;28;20240;-60
2024/01/25 04:29:36;;;;;;;6.03;2.07;;;9.00;59.20;;;;;;5061693;28;20237;-60
2024/01/25 04:32:02;;;;;;;5.00;2.30;;;9.00;59.40;;;;;;5061621;28;20430;-60
2024/01/25 04:34:29;;;;;;;5.97;2.57;;;8.90;59.60;;;;;;5050898;28;20660;-60
2024/01/25 04:36:55;;;;;;;7.80;2.33;;;9.00;59.70;;;;;;5046950;28;20285;-60
2024/01/25 04:39:22;;;;;;;5.80;2.50;;;9.10;59.60;;;;;;5047577;28;20214;-60
2024/01/25 04:41:49;;;;;;;8.13;2.90;;;9.00;59.60;;;;;;5046466;28;20221;-60
2024/01/25 04:44:15;;;;;;;7.97;2.77;;;8.90;59.90;;;;;;5059714;28;20240;-60
2024/01/25 04:46:42;;;;;;;6.00;2.30;;;8.90;60.10;;;;;;5063789;28;20253;-60
2024/01/25 04:49:09;;;;;;;5.43;2.50;;;8.90;60.30;;;;;;5059556;28;20241;-60
2024/01/25 04:51:36;;;;;;;8.30;2.93;;;8.90;60.30;;;;;;5057899;28;20217;-60
2024/01/25 04:54:02;;;;;;;4.27;2.57;;;8.90;60.60;;;;;;5065831;28;20205;-60
2024/01/25 04:56:28;;;;;;;8.60;3.03;;;8.90;60.70;;;;;;5066169;28;20283;-60
2024/01/25 04:58:55;;;;;;;5.53;2.37;;;8.80;60.60;;;;;;5055393;28;20692;-60
2024/01/25 05:01:21;;;;;;;4.17;2.73;;;8.80;60.70;;;;;;5044785;28;20281;-60
2024/01/25 05:03:48;;;;;;;5.60;2.77;;;8.80;60.90;;;;;;5063564;28;20198;-60
2024/01/25 05:06:14;;;;;;;8.27;2.67;;;8.80;60.80;;;;;;5064533;28;20287;-60
2024/01/25 05:08:41;;;;;;;7.53;3.70;;;8.80;60.80;;;;;;5062716;28;20224;-60
2024/01/25 05:11:08;;;;;;;4.53;2.20;;;8.80;61.10;;;;;;5063056;28;20226;-60
2024/01/25 05:13:35;;;;;;;7.70;2.97;;;8.80;61.20;;;;;;5062019;28;20229;-60
2024/01/25 05:16:01;;;;;;;9.17;2.87;;;8.80;61.40;;;;;;5064050;28;20230;-60
2024/01/25 05:18:28;;;;;;;8.70;2.73;;;8.70;61.70;;;;;;5067504;28;20641;-60
2024/01/25 05:20:54;;;;;;;8.47;2.67;;;8.80;61.70;;;;;;5048146;28;20201;-59
2024/01/25 05:23:21;;;;;;;3.67;2.27;;;8.80;61.70;;;;;;5058479;28;20735;-60
2024/01/25 05:25:47;;;;;;;3.13;2.33;;;8.80;61.80;;;;;;5055673;28;20230;-60
2024/01/25 05:28:14;;;;;;;5.23;2.63;;;8.70;61.80;;;;;;5063978;28;20253;-60
2024/01/25 05:30:40;;;;;;;4.73;2.73;;;8.70;61.60;;;;;;5057620;28;20622;-59
2024/01/25 05:33:07;;;;;;;4.67;2.73;;;8.80;61.60;;;;;;5057950;28;20221;-59
2024/01/25 05:35:34;;;;;;;5.70;2.67;;;8.80;61.40;;;;;;5045700;28;20238;-60
2024/01/25 05:38:00;;;;;;;4.90;2.87;;;8.80;61.20;;;;;;5054052;28;20201;-58
2024/01/25 05:40:27;;;;;;;8.30;2.77;;;8.80;60.90;;;;;;5048454;28;20297;-60
2024/01/25 05:42:53;;;;;;;6.03;2.70;;;8.70;61.20;;;;;;5041067;28;20326;-60
2024/01/25 05:45:21;;;;;;;5.27;2.70;;;8.70;61.30;;;;;;5057553;28;20247;-60
2024/01/25 05:47:47;;;;;;;3.37;2.23;;;8.70;61.50;;;;;;5052712;28;20225;-59
2024/01/25 05:50:14;;;;;;;7.03;2.70;;;8.80;61.20;;;;;;5038278;28;20237;-59
2024/01/25 05:52:41;;;;;;;6.20;2.63;;;8.70;61.30;;;;;;5043308;28;20591;-58
2024/01/25 05:55:07;;;;;;;6.87;2.70;;;8.70;60.90;;;;;;5052879;28;20237;-59
2024/01/25 05:57:34;;;;;;;4.77;2.60;;;8.70;60.90;;;;;;5059553;28;20796;-59
2024/01/25 06:00:00;;;;;;;9.37;3.43;;;8.60;61.60;;;;;;5049094;28;20253;-60
2024/01/25 06:02:27;;;;;;;5.80;2.80;;;8.70;61.30;;;;;;5053182;28;20721;-60
2024/01/25 06:04:53;;;;;;;6.50;3.00;;;8.70;61.10;;;;;;5048539;28;20296;-59
2024/01/25 06:07:21;;;;;;;6.80;2.90;;;8.60;61.20;;;;;;5047562;28;20222;-58
2024/01/25 06:09:47;;;;;;;4.77;2.50;;;8.60;61.30;;;;;;5052364;28;20652;-59
2024/01/25 06:12:14;;;;;;;5.37;3.23;;;8.70;61.30;;;;;;5035617;28;20484;-59
2024/01/25 06:14:40;;;;;;;6.30;2.60;;;8.50;61.80;;;;;;5051136;28;20244;-58
2024/01/25 06:17:06;;;;;;;9.13;2.90;;;8.60;61.80;;;;;;5050993;28;20196;-59
2024/01/25 06:19:34;;;;;;;7.27;2.80;;;8.60;61.70;;;;;;5057878;28;20382;-58
2024/01/25 06:22:00;;;;;;;10.00;2.77;;;8.50;62.00;;;;;;5053983;28;20237;-58
2024/01/25 06:24:27;;;;;;;7.17;2.90;;;8.60;61.80;;;;;;5050708;28;20263;-59
2024/01/25 06:26:53;;;;;;;6.43;2.77;;;8.50;62.10;;;;;;5047054;28;20248;-63
2024/01/25 06:29:20;;;;;;;5.97;2.97;;;8.50;61.90;;;;;;5058573;28;20319;-61
2024/01/25 06:31:47;;;;;;;7.83;2.83;;;8.50;61.80;;;;;;5065222;28;20307;-61
2024/01/25 06:34:13;;;;;;;8.87;3.40;;;8.50;61.60;;;;;;5077994;28;20299;-61
2024/01/25 06:36:40;;;;;;;9.47;2.97;;;8.50;61.60;;;;;;5069844;28;20228;-59
2024/01/25 06:39:06;;;;;;;8.17;3.33;;;8.40;62.10;;;;;;5066533;28;20231;-61
2024/01/25 06:41:33;;;;;;;8.83;3.10;;;8.30;62.40;;;;;;5064267;28;20690;-61
2024/01/25 06:43:59;;;;;;;9.80;3.67;;;8.30;62.60;;;;;;5067519;28;20682;-60
2024/01/25 06:46:26;;;;;;;9.80;3.53;;;8.30;62.50;;;;;;5073661;28;20315;-61
2024/01/25 06:48:53;;;;;;;6.20;2.90;;;8.30;62.20;;;;;;5070406;28;20204;-60
2024/01/25 06:51:19;;;;;;;10.43;3.50;;;8.30;62.00;;;;;;5068047;28;20734;-61
2024/01/25 06:53:46;;;;;;;6.77;2.23;;;8.20;62.50;;;;;;5070888;28;20296;-61
2024/01/25 06:56:13;;;;;;;8.40;3.43;;;8.20;62.30;;;;;;5081477;28;20207;-61
2024/01/25 06:58:39;;;;;;;10.83;3.60;;;8.20;62.30;;;;;;5072749;28;20289;-61
2024/01/25 07:01:06;;;;;;;6.90;3.63;;;8.10;62.80;;;;;;5069635;28;20631;-61
2024/01/25 07:03:32;;;;;;;6.57;2.93;;;8.20;62.10;;;;;;5070087;28;20254;-61
2024/01/25 07:05:59;;;;;;;10.83;3.20;;;8.10;62.40;;;;;;5071712;28;20239;-61
2024/01/25 07:08:27;;;;;;;7.87;3.20;;;8.10;62.40;;;;;;5083132;28;20231;-60
2024/01/25 07:10:53;;;;;;;8.83;3.20;;;8.10;62.50;;;;;;5072076;28;20695;-61
2024/01/25 07:13:20;;;;;;;9.37;3.37;;;8.00;62.30;;;;;;5070330;28;20205;-61
2024/01/25 07:15:47;;;;;;;6.77;3.37;;;8.10;62.10;;;;;;5085467;28;20217;-61
2024/01/25 07:18:14;;;;;;;8.13;3.47;;;8.10;61.80;;;;;;5073278;28;20301;-61
2024/01/25 07:20:41;;;;;;;7.27;3.83;;;8.10;61.80;;;;;;5078038;28;20342;-62
2024/01/25 07:23:08;;;;;;;8.50;3.40;;;8.00;62.00;;;;;;5079060;28;20631;-59
2024/01/25 07:25:35;;;;;;;10.53;3.33;;;8.10;61.80;;;;;;5074104;28;20284;-61
2024/01/25 07:28:01;;;;;;;9.73;3.57;;;8.10;61.80;;;;;;5064503;28;20231;-61
2024/01/25 07:30:28;;;;;;;7.70;3.60;;;8.10;61.80;;;;;;5074573;28;20677;-61
2024/01/25 07:32:55;;;;;;;9.97;3.30;;;8.10;61.80;;;;;;5070085;28;20252;-61
2024/01/25 07:35:23;;;;;;;8.20;3.07;;;8.00;61.70;;;;;;5068718;28;20243;-62
2024/01/25 07:37:49;;;;;;;6.87;3.37;;;8.10;61.80;;;;;;5069769;28;20260;-62
2024/01/25 07:40:16;;;;;;;10.37;3.30;;;8.10;61.50;;;;;;5080410;28;20736;-61
2024/01/25 07:42:42;;;;;;;8.63;2.93;;;8.10;61.60;;;;;;5082228;28;20611;-61
2024/01/25 07:45:09;;;;;;;6.70;3.20;;;8.10;61.20;;;;;;5081013;28;20233;-61
2024/01/25 07:47:36;;;;;;;9.10;3.47;;;8.20;60.90;;;;;;5082074;28;20228;-61
2024/01/25 07:50:03;;;;;;;9.37;3.40;;;8.20;60.50;;;;;;5070482;28;20630;-62
2024/01/25 07:52:29;;;;;;;8.27;3.53;;;8.30;60.60;;;;;;5064399;28;20270;-62
2024/01/25 07:54:56;;;;;;;9.33;4.17;;;8.30;60.50;;;;;;5063699;28;20258;-61
2024/01/25 07:57:22;;;;;;;14.20;4.03;;;8.40;60.30;;;;;;5067153;28;20197;-61
2024/01/25 07:59:49;;;;;;;7.40;3.70;;;8.30;60.30;;;;;;5073150;28;20253;-59
2024/01/25 08:02:16;;;;;;;35.33;5.33;;;8.60;60.70;;;;;;5067164;28;20280;-62
2024/01/25 08:04:43;;;;;;;8.97;3.07;;;8.90;72.00;;;;;;5081571;28;20243;-61
2024/01/25 08:07:09;;;;;;;10.00;3.00;;;9.10;59.40;;;;;;5081361;28;20319;-60
2024/01/25 08:09:36;;;;;;;13.43;3.50;;;8.80;60.20;;;;;;5071657;28;20226;-60
2024/01/25 08:12:02;;;;;;;20.17;4.53;;;8.60;60.20;;;;;;5069919;28;20256;-61
2024/01/25 08:14:29;;;;;;;8.20;2.63;;;8.80;59.40;;;;;;5070971;28;20228;-61
2024/01/25 08:16:56;;;;;;;13.47;3.40;;;;;;;;;;5040355;28;20202;-65
2024/01/25 08:19:22;;;;;;;9.70;4.20;;;8.90;59.40;;;;;;5063897;28;20206;-63
2024/01/25 08:21:49;;;;;;;13.07;3.10;;;9.10;57.30;;;;;;5064367;28;20264;-63
2024/01/25 08:24:15;;;;;;;9.90;2.97;;;9.00;56.90;;;;;;5076737;28;20254;-64
2024/01/25 08:26:42;;;;;;;8.03;2.97;;;8.70;57.20;;;;;;5076349;28;20206;-64
2024/01/25 08:29:08;;;;;;;9.67;3.07;;;8.80;57.00;;;;;;5076816;28;20305;-64
2024/01/25 08:31:35;;;;;;;7.63;3.17;;;8.70;56.70;;;;;;5077894;28;20244;-64
2024/01/25 08:34:01;;;;;;;7.80;3.47;;;8.70;56.50;;;;;;5084243;28;20205;-64
2024/01/25 08:36:28;;;;;;;14.67;4.60;;;8.70;56.30;;;;;;5080303;28;20255;-64
2024/01/25 08:38:54;;;;;;;9.80;3.70;;;8.90;55.80;;;;;;5062831;28;20221;-64
2024/01/25 08:41:21;;;;;;;8.63;3.20;;;8.90;55.80;;;;;;5071384;28;20253;-64
2024/01/25 08:43:47;;;;;;;9.30;3.43;;;8.80;55.80;;;;;;5073775;28;20206;-64
2024/01/25 08:46:14;;;;;;;9.97;3.60;;;8.90;55.90;;;;;;5084353;28;20259;-64
2024/01/25 08:48:40;;;;;;;7.53;3.23;;;9.10;55.10;;;;;;5075863;28;20538;-64
2024/01/25 08:51:07;;;;;;;9.70;3.83;;;9.40;54.40;;;;;;5083605;28;20287;-63
2024/01/25 08:53:33;;;;;;;11.13;3.93;;;9.50;53.50;;;;;;5083613;28;20201;-64
2024/01/25 08:56:00;;;;;;;7.27;3.00;;;9.20;53.10;;;;;;5076853;28;20628;-64
2024/01/25 08:58:27;;;;;;;10.80;3.33;;;9.10;53.70;;;;;;5070134;28;20205;-64
2024/01/25 09:00:53;;;;;;;12.90;3.60;;;9.20;54.00;;;;;;5083262;28;20267;-64
2024/01/25 09:03:20;;;;;;;12.53;3.33;;;9.60;53.70;;;;;;5072268;28;20642;-64
2024/01/25 09:05:46;;;;;;;14.63;3.43;;;9.60;53.80;;;;;;5082850;28;20233;-64
2024/01/25 09:08:13;;;;;;;7.40;3.37;;;9.40;54.00;;;;;;5070672;28;20279;-64
2024/01/25 09:10:39;;;;;;;7.37;3.40;;;9.30;54.10;;;;;;5076979;28;20575;-64
2024/01/25 09:13:06;;;;;;;10.93;4.03;;;9.20;53.80;;;;;;5080689;28;20235;-63
2024/01/25 09:15:32;;;;;;;11.40;3.63;;;9.30;53.90;;;;;;5079931;28;20288;-64
2024/01/25 09:17:59;;;;;;;8.47;3.07;;;9.70;51.50;;;;;;5071652;28;20206;-64
2024/01/25 09:20:25;;;;;;;15.63;3.93;;;10.20;49.20;;;;;;5080366;28;20212;-64
2024/01/25 09:22:53;;;;;;;12.57;3.53;;;10.50;48.70;;;;;;5082438;28;20243;-64
2024/01/25 09:25:20;;;;;;;14.40;4.23;;;10.80;48.00;;;;;;5060685;28;20742;-64
2024/01/25 09:27:46;;;;;;;13.20;4.17;;;11.10;47.00;;;;;;5062924;28;20520;-64
2024/01/25 09:30:13;;;;;;;11.90;4.23;;;11.20;45.10;;;;;;5076263;28;20281;-64
2024/01/25 09:32:39;;;;;;;10.17;3.60;;;11.50;45.90;;;;;;5065463;28;20314;-64
2024/01/25 09:35:06;;;;;;;12.63;3.63;;;11.40;45.30;;;;;;5077931;28;20210;-64
2024/01/25 09:37:32;;;;;;;9.50;3.83;;;11.70;45.10;;;;;;5079333;28;20679;-64
2024/01/25 09:39:59;;;;;;;11.50;4.00;;;11.20;43.50;;;;;;5064079;28;20204;-64
2024/01/25 09:42:26;;;;;;;10.23;3.70;;;11.10;45.10;;;;;;5080428;28;20225;-64
2024/01/25 09:44:51;;;;;;;9.73;3.00;;;11.50;43.60;;;;;;5079887;28;20216;-64
2024/01/25 09:47:20;;;;;;;12.33;3.60;;;11.00;43.80;;;;;;5080310;28;20296;-64
2024/01/25 09:49:46;;;;;;;9.57;2.93;;;10.80;45.20;;;;;;5072825;28;20206;-64
2024/01/25 09:52:13;;;;;;;14.07;3.73;;;10.60;44.00;;;;;;5075364;28;20221;-64
2024/01/25 09:54:39;;;;;;;8.47;4.00;;;10.70;43.90;;;;;;5073621;28;20677;-64
2024/01/25 09:57:06;;;;;;;12.93;3.93;;;11.50;42.20;;;;;;5079773;28;20225;-64
2024/01/25 09:59:33;;;;;;;10.90;4.13;;;11.70;42.10;;;;;;5079977;28;20201;-63
2024/01/25 10:01:59;;;;;;;7.90;3.57;;;11.10;41.70;;;;;;5079183;28;20699;-64
2024/01/25 10:04:26;;;;;;;12.93;4.13;;;10.90;42.30;;;;;;5079762;28;20260;-64
2024/01/25 10:06:52;;;;;;;10.83;2.83;;;10.80;42.30;;;;;;5070069;28;20593;-64
2024/01/25 10:09:19;;;;;;;7.43;3.73;;;10.60;43.40;;;;;;5072921;28;20258;-64
2024/01/25 10:11:46;;;;;;;7.80;3.17;;;10.30;42.80;;;;;;5081328;28;20283;-64
2024/01/25 10:14:12;;;;;;;12.87;4.20;;;10.10;43.30;;;;;;5083304;28;20258;-64
2024/01/25 10:16:39;;;;;;;11.33;4.07;;;10.00;43.50;;;;;;5082169;28;20220;-64
2024/01/25 10:19:05;;;;;;;11.23;3.53;;;10.00;43.30;;;;;;5079729;28;20209;-63
2024/01/25 10:21:32;;;;;;;12.17;3.33;;;10.20;44.00;;;;;;5082506;28;20232;-64
2024/01/25 10:23:58;;;;;;;13.07;4.00;;;10.40;43.50;;;;;;5081494;28;20285;-64
2024/01/25 10:26:25;;;;;;;12.90;3.73;;;10.60;42.40;;;;;;5077313;28;20217;-64
2024/01/25 10:28:51;;;;;;;8.70;3.33;;;10.90;42.30;;;;;;5080044;28;20233;-64
2024/01/25 10:31:18;;;;;;;13.10;3.90;;;10.80;41.60;;;;;;5079248;28;20762;-64
2024/01/25 10:33:44;;;;;;;11.23;3.30;;;10.80;41.70;;;;;;5079336;28;20210;-64
2024/01/25 10:36:11;;;;;;;8.03;2.83;;;11.50;40.60;;;;;;5072844;28;20237;-64
2024/01/25 10:38:37;;;;;;;12.13;3.60;;;11.20;39.90;;;;;;5078905;28;20585;-64
2024/01/25 10:41:05;;;;;;;13.20;2.80;;;11.50;38.90;;;;;;5056221;28;20228;-64
2024/01/25 10:43:31;;;;;;;7.93;3.57;;;11.30;39.60;;;;;;5079550;28;20326;-64
2024/01/25 10:45:58;;;;;;;13.37;3.70;;;10.90;39.60;;;;;;5082906;28;20561;-64
2024/01/25 10:48:25;;;;;;;9.03;3.53;;;11.30;39.80;;;;;;5074111;28;20249;-65
2024/01/25 10:50:51;;;;;;;10.60;3.53;;;11.30;39.40;;;;;;5067267;28;20247;-64
2024/01/25 10:53:18;;;;;;;11.13;3.47;;;11.60;38.70;;;;;;5075402;28;20650;-65
2024/01/25 10:55:44;;;;;;;10.53;3.33;;;11.40;40.00;;;;;;5080826;28;20235;-64
2024/01/25 10:58:11;;;;;;;9.60;3.30;;;11.30;39.60;;;;;;5077882;28;20205;-65
2024/01/25 11:00:38;;;;;;;8.40;3.40;;;11.30;38.30;;;;;;5080016;28;20207;-64
2024/01/25 11:03:04;;;;;;;9.30;3.80;;;11.00;38.90;;;;;;5071760;28;20206;-64
2024/01/25 11:05:31;;;;;;;10.57;3.80;;;10.90;39.60;;;;;;5078349;28;20241;-63
2024/01/25 11:07:58;;;;;;;11.67;3.57;;;10.90;39.90;;;;;;5067509;28;20315;-63
2024/01/25 11:10:24;;;;;;;11.40;3.80;;;11.20;38.90;;;;;;5076024;28;20630;-63
2024/01/25 11:12:51;;;;;;;10.63;3.30;;;11.10;40.00;;;;;;5079669;28;20231;-63
2024/01/25 11:15:18;;;;;;;8.73;3.30;;;11.50;38.80;;;;;;5071837;28;20300;-63
2024/01/25 11:17:44;;;;;;;10.20;3.37;;;11.50;39.70;;;;;;5078952;28;20208;-63
2024/01/25 11:20:11;;;;;;;10.97;3.73;;;11.80;38.50;;;;;;5078230;28;20225;-63
2024/01/25 11:22:37;;;;;;;7.60;3.50;;;11.70;39.20;;;;;;5073804;28;20295;-63
2024/01/25 11:25:04;;;;;;;7.93;3.07;;;11.80;38.90;;;;;;5074839;28;20219;-63
2024/01/25 11:27:30;;;;;;;8.03;3.47;;;12.10;38.70;;;;;;5080615;28;20205;-63
2024/01/25 11:29:57;;;;;;;10.90;3.70;;;12.00;39.30;;;;;;5068799;28;20334;-63
2024/01/25 11:32:23;;;;;;;7.83;3.13;;;12.10;38.90;;;;;;5075324;28;20606;-63
2024/01/25 11:34:50;;;;;;;9.20;3.30;;;12.10;38.80;;;;;;5081647;28;20212;-63
2024/01/25 11:37:18;;;;;;;10.87;3.13;;;12.00;39.60;;;;;;5064913;28;20253;-63
2024/01/25 11:39:44;;;;;;;10.17;3.23;;;11.60;40.70;;;;;;5050346;28;20672;-63
2024/01/25 11:42:11;;;;;;;9.27;3.53;;;12.10;39.60;;;;;;5064989;28;20236;-63
2024/01/25 11:44:37;;;;;;;9.20;3.60;;;12.20;39.10;;;;;;5071602;28;20234;-63
2024/01/25 11:47:04;;;;;;;11.37;3.20;;;12.40;38.80;;;;;;5076376;28;20575;-63
2024/01/25 11:49:30;;;;;;;9.63;3.20;;;12.60;37.60;;;;;;5065579;28;20419;-63
2024/01/25 11:51:57;;;;;;;12.43;3.30;;;12.60;37.60;;;;;;5072551;28;20673;-63
2024/01/25 11:54:23;;;;;;;5.00;2.83;;;13.00;37.80;;;;;;5073099;28;20243;-63
2024/01/25 11:56:50;;;;;;;7.20;3.37;;;13.10;36.80;;;;;;5077661;28;20306;-64
2024/01/25 11:59:16;;;;;;;8.13;3.27;;;12.50;37.50;;;;;;5079546;28;20666;-64
2024/01/25 12:01:43;;;;;;;8.70;3.20;;;12.70;36.30;;;;;;5080839;28;20220;-64
2024/01/25 12:04:10;;;;;;;7.77;2.67;;;13.00;36.20;;;;;;5069623;28;20201;-64
2024/01/25 12:06:36;;;;;;;6.13;3.30;;;13.50;34.50;;;;;;5079895;28;20199;-64
2024/01/25 12:09:03;;;;;;;7.37;3.07;;;13.70;34.80;;;;;;5085397;28;20260;-63
2024/01/25 12:11:29;;;;;;;7.33;3.53;;;13.20;35.10;;;;;;5077361;28;20261;-63
2024/01/25 12:13:56;;;;;;;7.27;2.50;;;12.70;35.40;;;;;;5068522;28;20717;-64
2024/01/25 12:16:22;;;;;;;7.70;3.17;;;12.80;35.20;;;;;;5076383;28;20240;-63
2024/01/25 12:18:49;;;;;;;5.93;2.80;;;13.00;35.00;;;;;;5073516;28;20239;-63
2024/01/25 12:21:15;;;;;;;6.80;3.00;;;13.10;34.30;;;;;;5069149;28;20298;-63
2024/01/25 12:23:43;;;;;;;10.67;3.50;;;12.80;35.30;;;;;;5079283;28;20231;-64
2024/01/25 12:26:10;;;;;;;12.70;3.13;;;12.90;36.30;;;;;;5073094;28;20211;-64
2024/01/25 12:28:36;;;;;;;7.67;2.30;;;12.60;36.80;;;;;;5080944;28;20246;-66
2024/01/25 12:31:03;;;;;;;6.13;2.63;;;12.10;37.10;;;;;;5071429;28;20255;-64
2024/01/25 12:33:29;;;;;;;7.27;2.67;;;12.00;38.00;;;;;;5084803;28;20210;-64
2024/01/25 12:35:56;;;;;;;7.00;2.93;;;11.90;38.50;;;;;;5069730;28;20646;-63
2024/01/25 12:38:23;;;;;;;9.70;3.07;;;12.00;38.60;;;;;;5061712;28;20211;-63
2024/01/25 12:40:49;;;;;;;8.77;2.97;;;12.20;38.50;;;;;;5079684;28;20221;-64
2024/01/25 12:43:16;;;;;;;5.43;2.80;;;12.30;38.40;;;;;;5076403;28;20238;-63
2024/01/25 12:45:42;;;;;;;8.00;2.90;;;12.30;37.80;;;;;;5084707;28;20234;-64
2024/01/25 12:48:09;;;;;;;9.07;2.93;;;12.50;38.10;;;;;;5073452;28;20238;-63